Viking Queen — WDB9919 — position and weather

sailwx.info

Track history (hours):
 
Tides and Currents Weather Stations Pressure Air Temp Water Temp Dewpoint Dewpoint Depression Visibility Wind Speed Wind Dir Waves Ship Positions

Viking Queen

Owner: American River Transportation Company, St Louis, MO. More information available from US FCC via Universal Licensing System and Coast Guard Vessel Documentation Center.

Last reported at 2016-Apr-26 17:10 UTC. Time now 2016-Apr-29 15:53 UTC.
Position N 32°46' W 091°09'.

; draft 3.2 m.

Type: Towing. MMSI: 366985050.

Date/timePositionNaut miles runAvg speedWind from/ knotsBaromVisibWave heightAir tempDewpointWater temp
2016-Apr-26 17:10N 32°46' W 091°09'5 4.2
2016-Apr-26 16:04N 32°44' W 091°05'6 3.7
2016-Apr-26 14:33N 32°40' W 091°08'5 4.6
2016-Apr-26 13:33N 32°35' W 091°07'4 4.3
2016-Apr-26 12:33N 32°31' W 091°07'5 4.6
2016-Apr-26 11:34N 32°27' W 091°04'5 4.7
2016-Apr-26 10:33N 32°24' W 090°60'4 3.8
2016-Apr-26 09:34N 32°21' W 090°57'3 3.1
2016-Apr-26 08:33N 32°18' W 090°55'0 0.1
2016-Apr-26 07:33N 32°18' W 090°55'0 0.0
2016-Apr-26 06:33N 32°18' W 090°55'0 0.0
2016-Apr-26 05:34N 32°18' W 090°55'0 0.0
2016-Apr-26 04:33N 32°18' W 090°55'4 3.7
2016-Apr-26 03:33N 32°15' W 090°59'5 5.0
2016-Apr-26 02:34N 32°10' W 090°60'4 3.9
2016-Apr-26 01:33N 32°07' W 091°03'3 3.0
2016-Apr-26 00:33N 32°06' W 091°06'69 4.1
2016-Apr-25 07:33N 31°02' W 091°34'90 2.1
2016-Apr-23 13:13N 29°56' W 090°22'5 4.8
2016-Apr-23 12:13N 29°58' W 090°17'3 0.4
2016-Apr-23 03:13N 29°56' W 090°21'120 4.9
2016-Apr-22 02:33N 31°43' W 091°23'10 8.5
2016-Apr-22 01:24N 31°51' W 091°17'8 9.2
2016-Apr-22 00:31N 31°58' W 091°11'9 8.9
2016-Apr-21 23:33N 32°03' W 091°04'4 4.2
2016-Apr-21 22:33N 32°07' W 091°03'9 8.8
2016-Apr-21 21:33N 32°15' W 090°58'6 6.0
2016-Apr-21 20:34N 32°21' W 090°55'6 6.2
2016-Apr-21 19:33N 32°25' W 091°00'8 8.4
2016-Apr-21 18:33N 32°32' W 091°06'8 8.2
2016-Apr-21 17:33N 32°40' W 091°07'  
Track history (hours):
 
Tides and Currents Weather Stations Pressure Air Temp Water Temp Dewpoint Dewpoint Depression Visibility Wind Speed Wind Dir Waves Ship Positions

Viking Queen

Owner: American River Transportation Company, St Louis, MO. More information available from US FCC via Universal Licensing System and Coast Guard Vessel Documentation Center.

Last reported at 2016-Apr-26 17:10 UTC. Time now 2016-Apr-29 15:53 UTC.
Position N 32°46' W 091°09'.

; draft 3.2 m.

Type: Towing. MMSI: 366985050.

Date/timePositionNaut miles runAvg speedWind from/ knotsBaromVisibWave heightAir tempDewpointWater temp
2016-Apr-26 17:10N 32°46' W 091°09'5 4.2
2016-Apr-26 16:04N 32°44' W 091°05'6 3.7
2016-Apr-26 14:33N 32°40' W 091°08'5 4.6
2016-Apr-26 13:33N 32°35' W 091°07'4 4.3
2016-Apr-26 12:33N 32°31' W 091°07'5 4.6
2016-Apr-26 11:34N 32°27' W 091°04'5 4.7
2016-Apr-26 10:33N 32°24' W 090°60'4 3.8
2016-Apr-26 09:34N 32°21' W 090°57'3 3.1
2016-Apr-26 08:33N 32°18' W 090°55'0 0.1
2016-Apr-26 07:33N 32°18' W 090°55'0 0.0
2016-Apr-26 06:33N 32°18' W 090°55'0 0.0
2016-Apr-26 05:34N 32°18' W 090°55'0 0.0
2016-Apr-26 04:33N 32°18' W 090°55'4 3.7
2016-Apr-26 03:33N 32°15' W 090°59'5 5.0
2016-Apr-26 02:34N 32°10' W 090°60'4 3.9
2016-Apr-26 01:33N 32°07' W 091°03'3 3.0
2016-Apr-26 00:33N 32°06' W 091°06'69 4.1
2016-Apr-25 07:33N 31°02' W 091°34'90 2.1
2016-Apr-23 13:13N 29°56' W 090°22'5 4.8
2016-Apr-23 12:13N 29°58' W 090°17'3 0.4
2016-Apr-23 03:13N 29°56' W 090°21'120 4.9
2016-Apr-22 02:33N 31°43' W 091°23'10 8.5
2016-Apr-22 01:24N 31°51' W 091°17'8 9.2
2016-Apr-22 00:31N 31°58' W 091°11'9 8.9
2016-Apr-21 23:33N 32°03' W 091°04'4 4.2
2016-Apr-21 22:33N 32°07' W 091°03'9 8.8
2016-Apr-21 21:33N 32°15' W 090°58'6 6.0
2016-Apr-21 20:34N 32°21' W 090°55'6 6.2
2016-Apr-21 19:33N 32°25' W 091°00'8 8.4
2016-Apr-21 18:33N 32°32' W 091°06'8 8.2
2016-Apr-21 17:33N 32°40' W 091°07'  

Dump ship's entire track history